KSGF/SGF METAR and TAF weather

Enter ICAO airport designator
Station Type Date Time Source
KSGF METAR 2019/05/19 20:52 UTC NOAA

KSGF 192052Z 26015G21KT 10SM FEW037 22/13 A2991 RMK AO2 SLP119 T02220133 51006


Station Type Date Time Source
KSGF Decoded METAR 2019/05/19 20:52 UTC NOAA

SPRINGFIELD-BRANSON NATIONAL, MO, United States (KSGF) 37-14N 93-23W 389M
May 19, 2019 - 04:52 PM EDT / 2019.05.19 2052 UTC
Wind: from the W (260 degrees) at 17 MPH (15 KT) gusting to 24 MPH (21 KT):0
Visibility: 10 mile(s):0
Sky conditions: mostly clear
Temperature: 72.0 F (22.2 C)
Dew Point: 55.9 F (13.3 C)
Relative Humidity: 57%
Pressure (altimeter): 29.91 in. Hg (1012 hPa)
Pressure tendency: 0.02 inches (0.6 hPa) higher than three hours ago
ob: KSGF 192052Z 26015G21KT 10SM FEW037 22/13 A2991 RMK AO2 SLP119 T02220133 51006
cycle: 21

Station Type Date Time Source
KSGF TAF 2019/05/19 18:40 UTC NOAA

TAF KSGF 191738Z 1918/2018 28014KT P6SM SCT035
TEMPO 1918/1920 BKN030
FM200200 31006KT P6SM FEW250
FM200700 02005KT P6SM FEW250
TEMPO 2009/2013 1SM BR SCT003
FM201400 09009KT P6SM FEW250

Example: see airport list